createdAt,value
2023-05-25T00:00:23.922Z,10.86
2023-05-25T00:01:24.170Z,10.84
2023-05-25T00:02:24.629Z,10.87
2023-05-25T00:03:24.750Z,10.87
2023-05-25T00:04:24.988Z,10.87
2023-05-25T00:05:25.323Z,10.86
2023-05-25T00:06:25.613Z,10.86
2023-05-25T00:07:25.873Z,10.84
2023-05-25T00:08:26.107Z,10.86
2023-05-25T00:09:26.517Z,10.83
2023-05-25T00:10:26.725Z,10.82
2023-05-25T00:11:26.985Z,10.79
2023-05-25T00:12:27.225Z,10.79
2023-05-25T00:13:27.475Z,10.80
2023-05-25T00:14:34.759Z,10.76
2023-05-25T00:15:30.603Z,10.76
2023-05-25T00:16:28.340Z,10.77
2023-05-25T00:17:30.331Z,10.77
2023-05-25T00:18:28.864Z,10.79
2023-05-25T00:19:29.223Z,10.77
2023-05-25T00:20:29.497Z,10.77
2023-05-25T00:21:29.764Z,10.75
2023-05-25T00:22:29.992Z,10.72
2023-05-25T00:23:30.222Z,10.69
2023-05-25T00:24:30.439Z,10.71
2023-05-25T00:25:30.776Z,10.71
2023-05-25T00:26:31.140Z,10.69
2023-05-25T00:27:31.352Z,10.71
2023-05-25T00:28:31.748Z,10.71
2023-05-25T00:29:31.960Z,10.69
2023-05-25T00:30:32.225Z,10.68
2023-05-25T00:31:32.532Z,10.68
2023-05-25T00:32:32.776Z,10.65
2023-05-25T00:33:32.977Z,10.64
2023-05-25T00:34:33.198Z,10.65
2023-05-25T00:35:33.534Z,10.68
2023-05-25T00:36:33.882Z,10.69
2023-05-25T00:37:34.159Z,10.68
2023-05-25T00:38:34.377Z,10.65
2023-05-25T00:39:34.716Z,10.64
2023-05-25T00:40:34.997Z,10.64
2023-05-25T00:41:35.250Z,10.65
2023-05-25T00:42:35.468Z,10.65
2023-05-25T00:43:35.730Z,10.67
2023-05-25T00:44:35.947Z,10.68
2023-05-25T00:45:36.323Z,10.65
2023-05-25T00:46:36.617Z,10.64
2023-05-25T00:47:36.831Z,10.62
2023-05-25T00:48:37.973Z,10.62
2023-05-25T00:49:37.298Z,10.61
2023-05-25T00:50:37.689Z,10.59
2023-05-25T00:51:38.093Z,10.58
2023-05-25T00:52:38.232Z,10.57
2023-05-25T00:53:38.465Z,10.55
2023-05-25T00:54:39.198Z,10.55
2023-05-25T00:55:38.931Z,10.55
2023-05-25T00:56:39.292Z,10.53
2023-05-25T00:57:39.510Z,10.51
2023-05-25T00:58:39.882Z,10.53
2023-05-25T00:59:40.091Z,10.55
2023-05-25T01:00:40.429Z,10.53
2023-05-25T01:01:40.687Z,10.55
2023-05-25T01:02:40.998Z,10.57
2023-05-25T01:03:41.291Z,10.55
2023-05-25T01:04:42.475Z,10.57
2023-05-25T01:05:41.953Z,10.55
2023-05-25T01:06:42.165Z,10.57
2023-05-25T01:07:42.413Z,10.58
2023-05-25T01:08:42.678Z,10.59
2023-05-25T01:09:42.887Z,10.58
2023-05-25T01:10:43.146Z,10.57
2023-05-25T01:11:43.391Z,10.55
2023-05-25T01:12:43.639Z,10.53
2023-05-25T01:13:43.872Z,10.49
2023-05-25T01:14:44.211Z,10.51
2023-05-25T01:15:44.714Z,10.48
2023-05-25T01:16:44.839Z,10.48
2023-05-25T01:17:45.043Z,10.45
2023-05-25T01:18:45.259Z,10.46
2023-05-25T01:19:49.573Z,10.45
2023-05-25T01:20:46.842Z,10.42
2023-05-25T01:21:46.136Z,10.42
2023-05-25T01:22:46.321Z,10.43
2023-05-25T01:23:46.577Z,10.41
2023-05-25T01:24:46.799Z,10.42
2023-05-25T01:25:47.044Z,10.45
2023-05-25T01:26:47.280Z,10.42
2023-05-25T01:27:47.529Z,10.42
2023-05-25T01:28:47.767Z,10.41
2023-05-25T01:29:47.983Z,10.39
2023-05-25T01:30:48.331Z,10.39
2023-05-25T01:31:48.616Z,10.39
2023-05-25T01:32:48.876Z,10.39
2023-05-25T01:33:49.107Z,10.39
2023-05-25T01:34:49.441Z,10.39
2023-05-25T01:35:49.660Z,10.39
2023-05-25T01:36:50.027Z,10.39
2023-05-25T01:37:50.237Z,10.36
2023-05-25T01:38:50.600Z,10.36
2023-05-25T01:39:50.819Z,10.31
2023-05-25T01:40:51.155Z,10.31
2023-05-25T01:41:51.392Z,10.31
2023-05-25T01:42:51.614Z,10.30
2023-05-25T01:43:51.843Z,10.30
2023-05-25T01:44:52.181Z,10.28
2023-05-25T01:45:52.527Z,10.28
2023-05-25T01:46:52.867Z,10.27
2023-05-25T01:47:53.157Z,10.27
2023-05-25T01:48:53.348Z,10.25
2023-05-25T01:49:53.576Z,10.25
2023-05-25T01:50:53.914Z,10.24
2023-05-25T01:51:54.241Z,10.21
2023-05-25T01:52:54.422Z,10.24
2023-05-25T01:53:54.651Z,10.24
2023-05-25T01:54:55.068Z,10.24
2023-05-25T01:55:55.300Z,10.24
2023-05-25T01:56:55.538Z,10.20
2023-05-25T01:57:55.770Z,10.20
2023-05-25T01:58:56.001Z,10.20
2023-05-25T01:59:56.245Z,10.20
2023-05-25T02:00:56.566Z,10.20
2023-05-25T02:01:56.843Z,10.21
2023-05-25T02:02:57.117Z,10.18
2023-05-25T02:03:57.334Z,10.15
2023-05-25T02:04:57.682Z,10.15
2023-05-25T02:05:57.882Z,10.15
2023-05-25T02:06:58.226Z,10.13
2023-05-25T02:07:58.447Z,10.12
2023-05-25T02:08:58.839Z,10.10
2023-05-25T02:09:59.076Z,10.10
2023-05-25T02:10:59.434Z,10.09
2023-05-25T02:11:59.667Z,10.09
2023-05-25T02:12:59.922Z,10.09
2023-05-25T02:14:00.198Z,10.07
2023-05-25T02:15:00.458Z,10.07
2023-05-25T02:16:00.708Z,10.07
2023-05-25T02:17:01.001Z,10.05
2023-05-25T02:18:01.394Z,10.06
2023-05-25T02:19:01.548Z,10.06
2023-05-25T02:20:01.869Z,10.06
2023-05-25T02:21:02.131Z,10.06
2023-05-25T02:22:02.446Z,10.06
2023-05-25T02:23:02.737Z,10.06
2023-05-25T02:24:03.134Z,10.07
2023-05-25T02:25:03.325Z,10.07
2023-05-25T02:26:03.643Z,10.06
2023-05-25T02:27:03.900Z,10.07
2023-05-25T02:28:04.197Z,10.09
2023-05-25T02:29:04.433Z,10.07
2023-05-25T02:30:04.693Z,10.09
2023-05-25T02:31:04.928Z,10.09
2023-05-25T02:32:05.168Z,10.09
2023-05-25T02:33:05.437Z,10.09
2023-05-25T02:34:05.645Z,10.10
2023-05-25T02:35:06.000Z,10.09
2023-05-25T02:36:06.218Z,10.09
2023-05-25T02:37:06.593Z,10.06
2023-05-25T02:38:06.798Z,10.09
2023-05-25T02:39:07.139Z,10.10
2023-05-25T02:40:07.378Z,10.09
2023-05-25T02:41:07.634Z,10.09
2023-05-25T02:42:07.946Z,10.07
2023-05-25T02:43:08.190Z,10.07
2023-05-25T02:44:08.419Z,10.07
2023-05-25T02:45:08.753Z,10.07
2023-05-25T02:46:09.004Z,10.09
2023-05-25T02:47:09.396Z,10.09
2023-05-25T02:48:09.591Z,10.09
2023-05-25T02:49:09.830Z,10.06
2023-05-25T02:50:10.044Z,10.05
2023-05-25T02:51:10.482Z,10.05
2023-05-25T02:52:10.699Z,10.05
2023-05-25T02:53:10.921Z,10.06
2023-05-25T02:54:11.249Z,10.06
2023-05-25T02:55:11.589Z,10.09
2023-05-25T02:56:11.830Z,10.07
2023-05-25T02:57:12.076Z,10.07
2023-05-25T02:58:12.299Z,10.07
2023-05-25T02:59:12.662Z,10.06
2023-05-25T03:00:12.886Z,10.07
2023-05-25T03:01:13.292Z,10.07
2023-05-25T03:02:13.522Z,10.10
2023-05-25T03:03:13.772Z,10.12
2023-05-25T03:04:13.977Z,10.09
2023-05-25T03:05:14.323Z,10.09
2023-05-25T03:06:14.536Z,10.10
2023-05-25T03:07:14.886Z,10.15
2023-05-25T03:08:15.099Z,10.17
2023-05-25T03:09:15.433Z,10.17
2023-05-25T03:10:15.656Z,10.17
2023-05-25T03:11:15.994Z,10.17
2023-05-25T03:12:16.238Z,10.20
2023-05-25T03:13:16.469Z,10.20
2023-05-25T03:14:16.687Z,10.21
2023-05-25T03:15:17.029Z,10.21
2023-05-25T03:16:17.372Z,10.21
2023-05-25T03:17:17.756Z,10.23
2023-05-25T03:18:17.936Z,10.20
2023-05-25T03:19:18.288Z,10.18
2023-05-25T03:20:18.537Z,10.17
2023-05-25T03:21:18.842Z,10.17
2023-05-25T03:22:20.111Z,10.15
2023-05-25T03:23:19.331Z,10.13
2023-05-25T03:24:19.595Z,10.13
2023-05-25T03:25:19.818Z,10.15
2023-05-25T03:26:20.122Z,10.15
2023-05-25T03:27:20.377Z,10.17
2023-05-25T03:28:20.611Z,10.18
2023-05-25T03:29:20.846Z,10.18
2023-05-25T03:30:21.093Z,10.15
2023-05-25T03:31:21.404Z,10.15
2023-05-25T03:32:21.896Z,10.17
2023-05-25T03:33:21.976Z,10.20
2023-05-25T03:34:22.198Z,10.21
2023-05-25T03:35:22.497Z,10.24
2023-05-25T03:36:22.714Z,10.24
2023-05-25T03:37:23.023Z,10.28
2023-05-25T03:38:23.278Z,10.30
2023-05-25T03:39:23.544Z,10.31
2023-05-25T03:40:23.779Z,10.31
2023-05-25T03:41:24.036Z,10.33
2023-05-25T03:42:24.375Z,10.34
2023-05-25T03:43:24.678Z,10.34
2023-05-25T03:44:24.962Z,10.38
2023-05-25T03:45:25.453Z,10.34
2023-05-25T03:46:25.590Z,10.36
2023-05-25T03:47:25.873Z,10.38
2023-05-25T03:48:26.103Z,10.38
2023-05-25T03:49:26.347Z,10.41
2023-05-25T03:50:26.602Z,10.43
2023-05-25T03:51:26.848Z,10.45
2023-05-25T03:52:27.104Z,10.51
2023-05-25T03:53:27.360Z,10.53
2023-05-25T03:54:27.596Z,10.55
2023-05-25T03:55:27.842Z,10.53
2023-05-25T03:56:28.087Z,10.53
2023-05-25T03:57:28.331Z,10.55
2023-05-25T03:58:28.616Z,10.55
2023-05-25T03:59:28.892Z,10.55
2023-05-25T04:00:29.336Z,10.57
2023-05-25T04:01:29.773Z,10.55
2023-05-25T04:02:29.655Z,10.53
2023-05-25T04:03:29.995Z,10.57
2023-05-25T04:04:30.199Z,10.61
2023-05-25T04:05:30.357Z,10.59
2023-05-25T04:06:30.588Z,10.62
2023-05-25T04:07:30.870Z,10.62
2023-05-25T04:08:31.170Z,10.65
2023-05-25T04:09:31.478Z,10.71
2023-05-25T04:10:31.737Z,10.72
2023-05-25T04:11:32.038Z,10.79
2023-05-25T04:12:32.361Z,10.83
2023-05-25T04:13:32.590Z,10.87
2023-05-25T04:14:32.838Z,10.92
2023-05-25T04:15:33.083Z,10.97
2023-05-25T04:16:33.423Z,11.02
2023-05-25T04:17:33.681Z,11.08
2023-05-25T04:18:33.890Z,11.13
2023-05-25T04:19:34.146Z,11.18
2023-05-25T04:20:34.407Z,11.20
2023-05-25T04:21:34.672Z,11.22
2023-05-25T04:22:35.002Z,11.23
2023-05-25T04:23:35.158Z,11.27
2023-05-25T04:24:35.404Z,11.27
2023-05-25T04:25:35.665Z,11.30
2023-05-25T04:26:35.907Z,11.33
2023-05-25T04:27:36.233Z,11.34
2023-05-25T04:28:36.404Z,11.35
2023-05-25T04:29:36.830Z,11.40
2023-05-25T04:30:36.967Z,11.38
2023-05-25T04:31:37.303Z,11.40
2023-05-25T04:32:37.951Z,11.38
2023-05-25T04:33:37.800Z,11.40
2023-05-25T04:34:38.056Z,11.43
2023-05-25T04:35:38.294Z,11.48
2023-05-25T04:36:38.546Z,11.49
2023-05-25T04:37:38.787Z,11.52
2023-05-25T04:38:39.042Z,11.56
2023-05-25T04:39:39.289Z,11.60
2023-05-25T04:40:39.607Z,11.67
2023-05-25T04:41:39.820Z,11.73
2023-05-25T04:42:40.066Z,11.76
2023-05-25T04:43:46.553Z,11.78
2023-05-25T04:44:41.629Z,11.85
2023-05-25T04:45:41.092Z,11.89
2023-05-25T04:46:41.263Z,11.93
2023-05-25T04:47:41.513Z,11.96
2023-05-25T04:48:41.652Z,12.02
2023-05-25T04:49:41.879Z,12.05
2023-05-25T04:50:42.113Z,12.11
2023-05-25T04:51:42.346Z,12.18
2023-05-25T04:52:42.541Z,12.23
2023-05-25T04:53:42.770Z,12.25
2023-05-25T04:54:43.056Z,12.30
2023-05-25T04:55:43.444Z,12.33
2023-05-25T04:56:43.494Z,12.37
2023-05-25T04:57:43.691Z,12.39
2023-05-25T04:58:43.923Z,12.43
2023-05-25T04:59:44.129Z,12.50
2023-05-25T05:00:44.582Z,12.54
2023-05-25T05:01:44.900Z,12.61
2023-05-25T05:02:45.051Z,12.63
2023-05-25T05:03:45.665Z,12.66
2023-05-25T05:04:45.411Z,12.68
2023-05-25T05:05:45.851Z,12.70
2023-05-25T05:06:45.866Z,12.73
2023-05-25T05:07:46.141Z,12.75
2023-05-25T05:08:46.376Z,12.73
2023-05-25T05:09:46.606Z,12.78
2023-05-25T05:10:46.830Z,12.80
2023-05-25T05:11:47.080Z,12.87
2023-05-25T05:12:47.302Z,12.91
2023-05-25T05:13:47.528Z,12.98
2023-05-25T05:14:47.740Z,12.98
2023-05-25T05:15:47.926Z,13.03
2023-05-25T05:16:48.398Z,13.09
2023-05-25T05:17:48.514Z,13.16
2023-05-25T05:18:48.715Z,13.17
2023-05-25T05:19:48.940Z,13.16
2023-05-25T05:20:49.132Z,13.13
2023-05-25T05:21:49.341Z,13.16
2023-05-25T05:22:49.561Z,13.17
2023-05-25T05:23:49.818Z,13.21
2023-05-25T05:24:49.987Z,13.27
2023-05-25T05:25:50.199Z,13.28
2023-05-25T05:26:58.335Z,13.24
2023-05-25T05:27:51.626Z,13.30
2023-05-25T05:28:50.892Z,13.31
2023-05-25T05:29:51.105Z,13.31
2023-05-25T05:30:51.347Z,13.30
2023-05-25T05:31:51.580Z,13.31
2023-05-25T05:32:51.808Z,13.42
2023-05-25T05:33:51.999Z,13.47
2023-05-25T05:34:52.305Z,13.57
2023-05-25T05:35:52.500Z,13.60
2023-05-25T05:36:57.239Z,13.62
2023-05-25T05:37:53.928Z,13.70
2023-05-25T05:38:53.139Z,13.76
2023-05-25T05:39:53.336Z,13.79
2023-05-25T05:40:53.656Z,13.82
2023-05-25T05:41:53.844Z,13.83
2023-05-25T05:42:54.179Z,13.87
2023-05-25T05:43:54.373Z,13.97
2023-05-25T05:44:54.696Z,14.01
2023-05-25T05:45:54.909Z,14.00
2023-05-25T05:46:55.232Z,14.05
2023-05-25T05:47:55.528Z,14.04
2023-05-25T05:48:55.719Z,14.07
2023-05-25T05:49:55.904Z,14.11
2023-05-25T05:50:56.231Z,14.16
2023-05-25T05:51:56.444Z,14.26
2023-05-25T05:52:56.662Z,14.38
2023-05-25T05:53:56.841Z,14.44
2023-05-25T05:54:57.151Z,14.52
2023-05-25T05:55:57.401Z,14.58
2023-05-25T05:56:57.623Z,14.62
2023-05-25T05:57:57.814Z,14.73
2023-05-25T05:58:58.032Z,14.89
2023-05-25T05:59:58.212Z,15.11
2023-05-25T06:00:58.422Z,15.39
2023-05-25T06:01:58.775Z,15.87
2023-05-25T06:02:58.949Z,16.44
2023-05-25T06:03:59.150Z,16.94
2023-05-25T06:04:59.350Z,17.44
2023-05-25T06:05:59.574Z,17.84
2023-05-25T06:06:59.734Z,18.06
2023-05-25T06:08:00.058Z,18.43
2023-05-25T06:09:00.303Z,19.08
2023-05-25T06:10:00.450Z,19.20
2023-05-25T06:11:00.741Z,19.05
2023-05-25T06:12:01.032Z,19.59
2023-05-25T06:13:01.321Z,20.19
2023-05-25T06:14:01.500Z,20.66
2023-05-25T06:15:10.398Z,21.14
2023-05-25T06:16:01.930Z,21.56
2023-05-25T06:17:02.395Z,21.94
2023-05-25T06:18:02.402Z,21.43
2023-05-25T06:19:02.537Z,21.66
2023-05-25T06:20:02.746Z,21.68
2023-05-25T06:21:02.880Z,21.62
2023-05-25T06:22:03.057Z,21.28
2023-05-25T06:23:03.310Z,21.01
2023-05-25T06:24:03.473Z,20.66
2023-05-25T06:25:03.652Z,21.35
2023-05-25T06:26:03.791Z,21.81
2023-05-25T06:27:03.935Z,22.19
2023-05-25T06:28:04.205Z,22.49
2023-05-25T06:29:04.348Z,22.93
2023-05-25T06:30:04.498Z,23.02
2023-05-25T06:31:04.633Z,22.77
2023-05-25T06:32:04.826Z,22.70
2023-05-25T06:33:05.067Z,22.49
2023-05-25T06:34:05.111Z,22.04
2023-05-25T06:35:05.256Z,21.62
2023-05-25T06:36:05.400Z,21.77
2023-05-25T06:37:05.546Z,21.96
2023-05-25T06:38:05.726Z,22.18
2023-05-25T06:39:05.874Z,22.28
2023-05-25T06:40:06.004Z,22.38
2023-05-25T06:41:06.259Z,22.04
2023-05-25T06:42:06.356Z,22.04
2023-05-25T06:43:06.617Z,21.92
2023-05-25T06:44:06.764Z,21.33
2023-05-25T06:45:06.968Z,21.89
2023-05-25T06:46:07.117Z,22.68
2023-05-25T06:47:07.220Z,22.89
2023-05-25T06:48:07.394Z,23.26
2023-05-25T06:49:07.524Z,23.86
2023-05-25T06:50:07.847Z,23.99
2023-05-25T06:51:07.884Z,24.07
2023-05-25T06:52:07.995Z,24.38
2023-05-25T06:53:08.149Z,24.11
2023-05-25T06:54:08.257Z,24.16
2023-05-25T06:55:08.399Z,24.38
2023-05-25T06:56:08.557Z,24.04
2023-05-25T06:57:08.706Z,23.74
2023-05-25T06:58:08.810Z,23.47
2023-05-25T06:59:08.938Z,23.79
2023-05-25T07:00:09.058Z,24.22
2023-05-25T07:01:09.189Z,23.95
2023-05-25T07:02:09.265Z,23.55
2023-05-25T07:03:09.421Z,23.36
2023-05-25T07:04:09.504Z,23.34
2023-05-25T07:05:09.665Z,23.40
2023-05-25T07:06:09.727Z,22.68
2023-05-25T07:07:09.846Z,22.51
2023-05-25T07:08:09.965Z,22.98
2023-05-25T07:09:10.103Z,22.96
2023-05-25T07:10:10.184Z,23.20
2023-05-25T07:11:10.285Z,23.07
2023-05-25T07:12:10.376Z,23.16
2023-05-25T07:13:10.498Z,23.18
2023-05-25T07:14:10.584Z,23.13
2023-05-25T07:15:10.682Z,23.49
2023-05-25T07:16:10.820Z,24.06
2023-05-25T07:17:10.882Z,24.65
2023-05-25T07:18:11.006Z,25.09
2023-05-25T07:19:11.100Z,25.24
2023-05-25T07:20:11.282Z,25.41
2023-05-25T07:21:11.343Z,25.36
2023-05-25T07:22:11.444Z,24.88
2023-05-25T07:23:11.562Z,25.06
2023-05-25T07:24:11.657Z,24.81
2023-05-25T07:25:11.743Z,24.65
2023-05-25T07:26:11.815Z,24.85
2023-05-25T07:27:11.999Z,25.03
2023-05-25T07:28:12.103Z,25.21
2023-05-25T07:29:12.275Z,24.61
2023-05-25T07:30:12.367Z,24.41
2023-05-25T07:31:12.552Z,24.24
2023-05-25T07:32:12.608Z,24.58
2023-05-25T07:33:12.714Z,24.62
2023-05-25T07:34:12.785Z,24.86
2023-05-25T07:35:12.888Z,24.96
2023-05-25T07:36:12.959Z,24.44
2023-05-25T07:37:13.162Z,24.34
2023-05-25T07:38:13.242Z,24.41
2023-05-25T07:39:13.330Z,24.59
2023-05-25T07:40:13.398Z,24.63
2023-05-25T07:41:13.505Z,24.74
2023-05-25T07:42:13.536Z,23.99
2023-05-25T07:43:13.633Z,23.40
2023-05-25T07:44:13.715Z,23.13
2023-05-25T07:45:13.792Z,23.62
2023-05-25T07:46:13.849Z,24.00
2023-05-25T07:47:13.961Z,24.09
2023-05-25T07:48:14.064Z,23.44
2023-05-25T07:49:14.135Z,23.17
2023-05-25T07:50:14.215Z,23.04
2023-05-25T07:51:14.285Z,23.06
2023-05-25T07:52:14.381Z,23.18
2023-05-25T07:53:14.462Z,23.25
2023-05-25T07:54:14.535Z,23.55
2023-05-25T07:55:14.674Z,23.40
2023-05-25T07:56:14.713Z,23.62
2023-05-25T07:57:14.805Z,23.49
2023-05-25T07:58:14.871Z,24.01
2023-05-25T07:59:14.956Z,23.84
2023-05-25T08:00:15.033Z,23.77
2023-05-25T08:01:15.121Z,23.21
2023-05-25T08:02:15.232Z,23.49
2023-05-25T08:03:15.384Z,22.67
2023-05-25T08:04:15.583Z,21.96
2023-05-25T08:05:15.557Z,21.28
2023-05-25T08:06:15.624Z,21.23
2023-05-25T08:07:15.697Z,21.45
2023-05-25T08:08:15.802Z,21.94
2023-05-25T08:09:16.471Z,22.55
2023-05-25T08:10:16.056Z,22.98
2023-05-25T08:11:16.143Z,23.01
2023-05-25T08:12:37.970Z,23.18
2023-05-25T08:13:17.306Z,23.18
2023-05-25T08:14:16.404Z,23.59
2023-05-25T08:15:16.743Z,23.40
2023-05-25T08:16:17.625Z,23.13
2023-05-25T08:17:16.734Z,22.88
2023-05-25T08:18:16.804Z,22.19
2023-05-25T08:19:16.888Z,21.89
2023-05-25T08:20:17.130Z,21.62
2023-05-25T08:21:17.066Z,21.32
2023-05-25T08:22:17.187Z,20.86
2023-05-25T08:23:17.289Z,20.48
2023-05-25T08:24:17.421Z,21.00
2023-05-25T08:25:17.525Z,21.83
2023-05-25T08:27:17.716Z,22.81
2023-05-25T08:28:17.809Z,22.18
2023-05-25T08:29:17.929Z,21.72
2023-05-25T08:30:18.034Z,21.25
2023-05-25T08:31:18.122Z,21.00
2023-05-25T08:32:18.203Z,20.78
2023-05-25T08:33:18.319Z,20.55
2023-05-25T08:34:18.432Z,20.36
2023-05-25T08:35:18.522Z,20.32
2023-05-25T08:36:18.628Z,20.22
2023-05-25T08:37:18.749Z,20.32
2023-05-25T08:38:18.875Z,20.33
2023-05-25T08:39:19.089Z,20.49
2023-05-25T08:40:19.183Z,20.90
2023-05-25T08:41:19.298Z,21.22
2023-05-25T08:42:19.410Z,21.13
2023-05-25T08:43:19.515Z,21.45
2023-05-25T08:44:19.637Z,21.68
2023-05-25T08:45:33.672Z,22.23
2023-05-25T08:46:20.829Z,22.81
2023-05-25T08:47:19.942Z,23.33
2023-05-25T08:49:20.202Z,23.56
2023-05-25T08:50:20.327Z,23.37
2023-05-25T08:51:20.399Z,22.38
2023-05-25T08:52:20.510Z,21.88
2023-05-25T08:53:20.604Z,21.51
2023-05-25T08:54:20.712Z,21.22
2023-05-25T08:55:20.829Z,21.17
2023-05-25T08:56:20.889Z,20.77
2023-05-25T08:57:21.107Z,20.64
2023-05-25T08:58:21.211Z,20.78
2023-05-25T08:59:21.331Z,20.98
2023-05-25T09:00:21.436Z,21.47
2023-05-25T09:01:21.598Z,21.66
2023-05-25T09:02:21.773Z,21.97
2023-05-25T09:03:21.976Z,21.96
2023-05-25T09:04:21.998Z,22.03
2023-05-25T09:05:22.100Z,22.26
2023-05-25T09:06:22.198Z,22.53
2023-05-25T09:07:22.393Z,22.65
2023-05-25T09:08:22.503Z,22.73
2023-05-25T09:09:22.626Z,22.93
2023-05-25T09:10:22.723Z,23.20
2023-05-25T09:11:36.057Z,22.96
2023-05-25T09:12:24.030Z,23.02
2023-05-25T09:13:23.345Z,22.89
2023-05-25T09:14:23.218Z,22.83
2023-05-25T09:15:23.309Z,22.55
2023-05-25T09:16:23.401Z,22.21
2023-05-25T09:17:23.458Z,22.08
2023-05-25T09:18:23.730Z,22.34
2023-05-25T09:19:23.737Z,22.63
2023-05-25T09:20:23.874Z,23.07
2023-05-25T09:21:23.950Z,23.34
2023-05-25T09:22:24.016Z,23.79
2023-05-25T09:23:24.087Z,24.14
2023-05-25T09:24:24.162Z,24.40
2023-05-25T09:25:24.226Z,24.47
2023-05-25T09:26:24.291Z,24.34
2023-05-25T09:27:24.336Z,24.14
2023-05-25T09:28:27.666Z,23.69
2023-05-25T09:29:24.501Z,23.36
2023-05-25T09:30:24.547Z,23.34
2023-05-25T09:31:24.638Z,23.01
2023-05-25T09:32:24.781Z,22.80
2023-05-25T09:33:24.814Z,22.56
2023-05-25T09:34:24.953Z,22.52
2023-05-25T09:35:25.033Z,22.55
2023-05-25T09:36:25.196Z,22.59
2023-05-25T09:37:25.382Z,22.63
2023-05-25T09:38:25.706Z,22.84
2023-05-25T09:39:25.597Z,22.91
2023-05-25T09:40:25.578Z,22.99
2023-05-25T09:41:25.664Z,23.06
2023-05-25T09:42:25.765Z,22.91
2023-05-25T09:43:39.729Z,22.58
2023-05-25T09:44:27.010Z,22.51
2023-05-25T09:45:26.076Z,22.53
2023-05-25T09:46:26.201Z,22.49
2023-05-25T09:47:26.260Z,22.56
2023-05-25T09:48:26.358Z,22.56
2023-05-25T09:49:26.424Z,22.43
2023-05-25T09:50:26.568Z,22.31
2023-05-25T09:51:26.657Z,22.31
2023-05-25T09:52:26.743Z,22.33
2023-05-25T09:53:26.849Z,22.63
2023-05-25T09:54:26.924Z,22.81
2023-05-25T09:55:33.701Z,23.32
2023-05-25T09:56:28.081Z,23.52
2023-05-25T09:57:27.150Z,23.59
2023-05-25T09:58:27.231Z,23.88
2023-05-25T09:59:27.306Z,23.88
2023-05-25T10:00:27.394Z,23.34
2023-05-25T10:01:27.496Z,23.23
2023-05-25T10:02:27.679Z,22.91
2023-05-25T10:03:27.725Z,22.56
2023-05-25T10:04:27.830Z,22.61
2023-05-25T10:05:27.895Z,22.92
2023-05-25T10:06:27.954Z,23.44
2023-05-25T10:07:28.014Z,23.99
2023-05-25T10:08:29.071Z,24.14
2023-05-25T10:09:28.164Z,23.71
2023-05-25T10:10:28.256Z,23.42
2023-05-25T10:11:28.334Z,22.89
2023-05-25T10:12:28.397Z,22.43
2023-05-25T10:13:28.466Z,22.67
2023-05-25T10:14:29.767Z,22.96
2023-05-25T10:15:28.694Z,23.02
2023-05-25T10:16:28.804Z,23.17
2023-05-25T10:17:28.827Z,23.21
2023-05-25T10:18:28.864Z,23.17
2023-05-25T10:19:28.922Z,23.51
2023-05-25T10:20:56.329Z,23.73
2023-05-25T10:21:29.995Z,23.85
2023-05-25T10:22:29.130Z,23.88
2023-05-25T10:23:29.195Z,24.34
2023-05-25T10:24:29.232Z,24.99
2023-05-25T10:25:29.361Z,25.46
2023-05-25T10:26:29.370Z,25.76
2023-05-25T10:27:29.387Z,25.91
2023-05-25T10:28:29.440Z,25.81
2023-05-25T10:29:29.461Z,25.83
2023-05-25T10:30:29.510Z,25.85
2023-05-25T10:31:29.979Z,25.80
2023-05-25T10:32:29.701Z,25.51
2023-05-25T10:34:29.755Z,25.36
2023-05-25T10:35:30.202Z,25.24
2023-05-25T10:36:29.790Z,25.25
2023-05-25T10:37:29.809Z,25.44
2023-05-25T10:38:29.817Z,25.06
2023-05-25T10:39:29.829Z,24.96
2023-05-25T10:40:29.885Z,24.99
2023-05-25T10:41:29.896Z,24.74
2023-05-25T10:42:29.929Z,24.43
2023-05-25T10:43:29.912Z,23.95
2023-05-25T10:44:29.922Z,24.21
2023-05-25T10:45:29.964Z,24.48
2023-05-25T10:46:29.978Z,24.81
2023-05-25T10:47:30.145Z,24.86
2023-05-25T10:48:30.045Z,24.99
2023-05-25T10:49:30.050Z,25.40
2023-05-25T10:50:30.185Z,25.83
2023-05-25T10:51:30.202Z,25.89
2023-05-25T10:52:30.228Z,25.71
2023-05-25T10:53:30.250Z,25.41
2023-05-25T10:54:30.287Z,25.46
2023-05-25T10:55:30.306Z,25.77
2023-05-25T10:56:30.383Z,26.26
2023-05-25T10:57:30.417Z,26.26
2023-05-25T10:58:30.434Z,26.18
2023-05-25T10:59:30.468Z,26.45
2023-05-25T11:00:30.526Z,26.15
2023-05-25T11:01:30.665Z,26.63
2023-05-25T11:02:30.664Z,27.11
2023-05-25T11:03:30.639Z,27.41
2023-05-25T11:04:30.672Z,27.61
2023-05-25T11:05:30.747Z,27.20
2023-05-25T11:06:30.771Z,26.29
2023-05-25T11:07:30.791Z,25.56
2023-05-25T11:08:30.823Z,25.12
2023-05-25T11:09:30.857Z,25.06
2023-05-25T11:10:30.904Z,25.51
2023-05-25T11:11:30.938Z,25.86
2023-05-25T11:12:30.995Z,26.08
2023-05-25T11:13:31.068Z,25.85
2023-05-25T11:14:31.139Z,26.08
2023-05-25T11:15:31.172Z,26.46
2023-05-25T11:16:31.278Z,27.16
2023-05-25T11:17:31.281Z,27.57
2023-05-25T11:18:31.294Z,27.61
2023-05-25T11:19:31.324Z,27.75
2023-05-25T11:20:31.436Z,27.88
2023-05-25T11:21:31.487Z,27.91
2023-05-25T11:22:31.618Z,28.22
2023-05-25T11:23:31.651Z,28.30
2023-05-25T11:24:31.686Z,27.86
2023-05-25T11:25:31.751Z,27.73
2023-05-25T11:26:31.806Z,27.13
2023-05-25T11:27:31.837Z,26.55
2023-05-25T11:28:31.875Z,26.11
2023-05-25T11:29:31.921Z,26.27
2023-05-25T11:30:31.994Z,26.41
2023-05-25T11:31:35.236Z,26.83
2023-05-25T11:32:33.122Z,27.03
2023-05-25T11:33:32.119Z,27.28
2023-05-25T11:34:32.207Z,27.18
2023-05-25T11:35:32.236Z,26.55
2023-05-25T11:36:32.294Z,26.89
2023-05-25T11:37:32.330Z,27.48
2023-05-25T11:38:32.383Z,27.79
2023-05-25T11:39:32.439Z,28.34
2023-05-25T11:40:33.308Z,28.83
2023-05-25T11:41:32.606Z,28.60
2023-05-25T11:42:32.658Z,28.77
2023-05-25T11:43:32.711Z,28.84
2023-05-25T11:44:32.748Z,28.50
2023-05-25T11:45:32.832Z,27.66
2023-05-25T11:46:32.906Z,27.01
2023-05-25T11:47:34.573Z,26.76
2023-05-25T11:48:33.065Z,26.93
2023-05-25T11:49:33.104Z,27.43
2023-05-25T11:50:33.234Z,27.81
2023-05-25T11:51:33.257Z,28.64
2023-05-25T11:52:33.318Z,29.25
2023-05-25T11:53:34.424Z,28.90
2023-05-25T11:54:33.497Z,28.50
2023-05-25T11:55:33.572Z,28.59
2023-05-25T11:56:35.956Z,28.22
2023-05-25T11:57:33.697Z,28.28
2023-05-25T11:58:33.762Z,28.15
2023-05-25T11:59:33.825Z,27.13
2023-05-25T12:00:33.981Z,26.67
2023-05-25T12:01:34.048Z,26.96
2023-05-25T12:02:34.199Z,27.53
2023-05-25T12:03:34.420Z,27.94
2023-05-25T12:04:34.478Z,27.98
2023-05-25T12:05:34.485Z,27.48
2023-05-25T12:06:34.542Z,27.30
2023-05-25T12:07:34.594Z,27.34
2023-05-25T12:08:34.662Z,27.37
2023-05-25T12:09:34.739Z,27.38
2023-05-25T12:10:34.800Z,26.71
2023-05-25T12:11:34.882Z,25.77
2023-05-25T12:12:34.976Z,24.75
2023-05-25T12:13:35.043Z,24.38
2023-05-25T12:14:35.150Z,24.59
2023-05-25T12:15:42.439Z,25.34
2023-05-25T12:16:35.375Z,25.99
2023-05-25T12:17:35.465Z,25.96
2023-05-25T12:18:37.226Z,25.99
2023-05-25T12:19:35.664Z,25.68
2023-05-25T12:20:35.765Z,25.46
2023-05-25T12:21:37.169Z,24.85
2023-05-25T12:22:35.885Z,24.59
2023-05-25T12:23:35.980Z,24.18
2023-05-25T12:24:36.091Z,23.74
2023-05-25T12:25:49.814Z,23.73
2023-05-25T12:26:37.377Z,23.95
2023-05-25T12:27:36.452Z,23.58
2023-05-25T12:28:36.564Z,23.23
2023-05-25T12:29:36.684Z,22.84
2023-05-25T12:30:36.816Z,22.67
2023-05-25T12:31:36.909Z,22.55
2023-05-25T12:32:37.026Z,22.56
2023-05-25T12:33:37.105Z,22.74
2023-05-25T12:34:37.323Z,22.71
2023-05-25T12:35:37.429Z,22.77
2023-05-25T12:36:37.544Z,22.67
2023-05-25T12:37:37.688Z,22.44
2023-05-25T12:38:37.814Z,22.56
2023-05-25T12:39:37.919Z,23.13
2023-05-25T12:40:38.038Z,24.04
2023-05-25T12:41:38.137Z,24.89
2023-05-25T12:42:38.279Z,25.19
2023-05-25T12:43:38.371Z,25.71
2023-05-25T12:44:38.592Z,25.54
2023-05-25T12:45:38.698Z,25.33
2023-05-25T12:46:38.850Z,25.14
2023-05-25T12:47:39.023Z,24.93
2023-05-25T12:48:39.116Z,24.55
2023-05-25T12:49:39.235Z,24.58
2023-05-25T12:50:39.346Z,24.82
2023-05-25T12:51:39.458Z,24.92
2023-05-25T12:52:39.546Z,25.62
2023-05-25T12:53:39.640Z,25.88
2023-05-25T12:54:39.733Z,26.18
2023-05-25T12:55:39.821Z,26.76
2023-05-25T12:56:39.937Z,27.33
2023-05-25T12:57:40.035Z,27.82